sensor_id;sensor_type;location;lat;lon;timestamp;pressure;altitude;pressure_sealevel;temperature;humidity
21781;BME280;52576;53.614;9.894;2023-04-26T00:01:10;101198.94;;;3.20;80.60
21781;BME280;52576;53.614;9.894;2023-04-26T00:03:15;101204.97;;;3.20;80.61
21781;BME280;52576;53.614;9.894;2023-04-26T00:05:19;101211.00;;;3.21;80.67
21781;BME280;52576;53.614;9.894;2023-04-26T00:07:23;101208.41;;;3.21;80.55
21781;BME280;52576;53.614;9.894;2023-04-26T00:09:28;101206.69;;;3.21;80.44
21781;BME280;52576;53.614;9.894;2023-04-26T00:11:31;101217.88;;;3.22;80.41
21781;BME280;52576;53.614;9.894;2023-04-26T00:13:35;101228.16;;;3.25;80.37
21781;BME280;52576;53.614;9.894;2023-04-26T00:15:39;101228.06;;;3.28;80.52
21781;BME280;52576;53.614;9.894;2023-04-26T00:17:42;101222.00;;;3.29;80.25
21781;BME280;52576;53.614;9.894;2023-04-26T00:19:46;101218.53;;;3.30;80.30
21781;BME280;52576;53.614;9.894;2023-04-26T00:21:49;101214.19;;;3.30;80.31
21781;BME280;52576;53.614;9.894;2023-04-26T00:23:53;101218.47;;;3.31;80.47
21781;BME280;52576;53.614;9.894;2023-04-26T00:25:58;101221.09;;;3.30;80.32
21781;BME280;52576;53.614;9.894;2023-04-26T00:28:01;101224.50;;;3.32;80.49
21781;BME280;52576;53.614;9.894;2023-04-26T00:30:06;101221.09;;;3.30;80.54
21781;BME280;52576;53.614;9.894;2023-04-26T00:32:10;101218.56;;;3.28;80.57
21781;BME280;52576;53.614;9.894;2023-04-26T00:34:13;101224.69;;;3.26;80.38
21781;BME280;52576;53.614;9.894;2023-04-26T00:36:17;101216.94;;;3.24;80.40
21781;BME280;52576;53.614;9.894;2023-04-26T00:38:20;101217.88;;;3.22;80.47
21781;BME280;52576;53.614;9.894;2023-04-26T00:40:25;101214.50;;;3.20;80.55
21781;BME280;52576;53.614;9.894;2023-04-26T00:42:30;101215.47;;;3.16;80.66
21781;BME280;52576;53.614;9.894;2023-04-26T00:44:33;101219.00;;;3.13;80.74
21781;BME280;52576;53.614;9.894;2023-04-26T00:46:37;101218.25;;;3.10;80.87
21781;BME280;52576;53.614;9.894;2023-04-26T00:48:41;101213.94;;;3.10;80.67
21781;BME280;52576;53.614;9.894;2023-04-26T00:50:44;101219.09;;;3.10;81.08
21781;BME280;52576;53.614;9.894;2023-04-26T00:52:49;101211.28;;;3.12;81.27
21781;BME280;52576;53.614;9.894;2023-04-26T00:54:53;101212.13;;;3.12;81.23
21781;BME280;52576;53.614;9.894;2023-04-26T00:56:58;101219.97;;;3.11;81.23
21781;BME280;52576;53.614;9.894;2023-04-26T00:59:04;101212.22;;;3.09;81.26
21781;BME280;52576;53.614;9.894;2023-04-26T01:01:08;101218.25;;;3.10;81.46
21781;BME280;52576;53.614;9.894;2023-04-26T01:03:12;101213.97;;;3.09;81.39
21781;BME280;52576;53.614;9.894;2023-04-26T01:05:16;101218.34;;;3.06;81.50
21781;BME280;52576;53.614;9.894;2023-04-26T01:07:19;101214.94;;;3.04;81.40
21781;BME280;52576;53.614;9.894;2023-04-26T01:09:23;101209.84;;;3.01;81.39
21781;BME280;52576;53.614;9.894;2023-04-26T01:11:26;101207.31;;;3.00;81.52
21781;BME280;52576;53.614;9.894;2023-04-26T01:13:31;101212.59;;;2.95;81.61
21781;BME280;52576;53.614;9.894;2023-04-26T01:15:36;101211.81;;;2.93;81.60
21781;BME280;52576;53.614;9.894;2023-04-26T01:17:39;101215.28;;;2.92;81.68
21781;BME280;52576;53.614;9.894;2023-04-26T01:19:47;101216.22;;;2.90;81.74
21781;BME280;52576;53.614;9.894;2023-04-26T01:21:50;101213.66;;;2.88;81.82
21781;BME280;52576;53.614;9.894;2023-04-26T01:23:56;101226.59;;;2.88;81.82
21781;BME280;52576;53.614;9.894;2023-04-26T01:26:00;101220.63;;;2.86;81.92
21781;BME280;52576;53.614;9.894;2023-04-26T01:28:03;101226.72;;;2.85;81.86
21781;BME280;52576;53.614;9.894;2023-04-26T01:30:07;101227.63;;;2.84;81.95
21781;BME280;52576;53.614;9.894;2023-04-26T01:32:10;101232.78;;;2.84;82.00
21781;BME280;52576;53.614;9.894;2023-04-26T01:34:14;101231.09;;;2.83;81.99
21781;BME280;52576;53.614;9.894;2023-04-26T01:36:20;101224.22;;;2.82;82.23
21781;BME280;52576;53.614;9.894;2023-04-26T01:38:23;101226.81;;;2.82;81.93
21781;BME280;52576;53.614;9.894;2023-04-26T01:40:29;101233.69;;;2.83;81.95
21781;BME280;52576;53.614;9.894;2023-04-26T01:42:33;101226.81;;;2.82;82.01
21781;BME280;52576;53.614;9.894;2023-04-26T01:44:36;101223.41;;;2.80;81.95
21781;BME280;52576;53.614;9.894;2023-04-26T01:46:40;101232.94;;;2.78;82.10
21781;BME280;52576;53.614;9.894;2023-04-26T01:48:46;101232.09;;;2.78;82.22
21781;BME280;52576;53.614;9.894;2023-04-26T01:50:50;101232.94;;;2.78;82.22
21781;BME280;52576;53.614;9.894;2023-04-26T01:52:53;101229.47;;;2.79;82.29
21781;BME280;52576;53.614;9.894;2023-04-26T01:54:57;101224.28;;;2.79;82.14
21781;BME280;52576;53.614;9.894;2023-04-26T01:57:02;101232.03;;;2.81;82.13
21781;BME280;52576;53.614;9.894;2023-04-26T01:59:06;101234.56;;;2.82;82.16
21781;BME280;52576;53.614;9.894;2023-04-26T02:01:09;101231.94;;;2.84;82.22
21781;BME280;52576;53.614;9.894;2023-04-26T02:03:13;101230.97;;;2.86;82.16
21781;BME280;52576;53.614;9.894;2023-04-26T02:05:16;101230.09;;;2.87;82.01
21781;BME280;52576;53.614;9.894;2023-04-26T02:07:20;101244.72;;;2.88;81.98
21781;BME280;52576;53.614;9.894;2023-04-26T02:09:23;101256.78;;;2.89;82.05
21781;BME280;52576;53.614;9.894;2023-04-26T02:11:27;101264.47;;;2.92;81.92
21781;BME280;52576;53.614;9.894;2023-04-26T02:13:33;101264.44;;;2.94;82.17
21781;BME280;52576;53.614;9.894;2023-04-26T02:15:36;101260.06;;;2.96;82.32
21781;BME280;52576;53.614;9.894;2023-04-26T02:17:40;101266.09;;;2.96;82.52
21781;BME280;52576;53.614;9.894;2023-04-26T02:19:43;101260.03;;;2.97;82.64
21781;BME280;52576;53.614;9.894;2023-04-26T02:21:51;101256.53;;;2.98;82.74
21781;BME280;52576;53.614;9.894;2023-04-26T02:23:54;101261.72;;;2.98;82.81
21781;BME280;52576;53.614;9.894;2023-04-26T02:25:58;101253.97;;;2.98;82.65
21781;BME280;52576;53.614;9.894;2023-04-26T02:28:01;101248.81;;;2.97;82.82
21781;BME280;52576;53.614;9.894;2023-04-26T02:30:07;101245.41;;;2.95;83.01
21781;BME280;52576;53.614;9.894;2023-04-26T02:32:11;101248.09;;;2.92;83.05
21781;BME280;52576;53.614;9.894;2023-04-26T02:34:15;101250.75;;;2.89;83.13
21781;BME280;52576;53.614;9.894;2023-04-26T02:36:20;101244.84;;;2.85;83.07
21781;BME280;52576;53.614;9.894;2023-04-26T02:38:23;101245.81;;;2.81;83.28
21781;BME280;52576;53.614;9.894;2023-04-26T02:40:28;101250.22;;;2.78;83.36
21781;BME280;52576;53.614;9.894;2023-04-26T02:42:32;101239.97;;;2.73;83.06
21781;BME280;52576;53.614;9.894;2023-04-26T02:44:36;101249.56;;;2.69;83.17
21781;BME280;52576;53.614;9.894;2023-04-26T02:46:42;101240.19;;;2.65;83.26
21781;BME280;52576;53.614;9.894;2023-04-26T02:48:45;101241.16;;;2.61;83.33
21781;BME280;52576;53.614;9.894;2023-04-26T02:50:49;101235.22;;;2.58;83.46
21781;BME280;52576;53.614;9.894;2023-04-26T02:52:53;101237.91;;;2.55;83.64
21781;BME280;52576;53.614;9.894;2023-04-26T02:54:57;101237.94;;;2.53;83.83
21781;BME280;52576;53.614;9.894;2023-04-26T02:57:00;101238.88;;;2.51;83.71
21781;BME280;52576;53.614;9.894;2023-04-26T02:59:03;101238.94;;;2.48;83.96
21781;BME280;52576;53.614;9.894;2023-04-26T03:01:08;101246.69;;;2.48;84.19
21781;BME280;52576;53.614;9.894;2023-04-26T03:03:12;101248.44;;;2.47;84.03
21781;BME280;52576;53.614;9.894;2023-04-26T03:05:19;101242.44;;;2.45;84.39
21781;BME280;52576;53.614;9.894;2023-04-26T03:07:23;101241.59;;;2.45;84.45
21781;BME280;52576;53.614;9.894;2023-04-26T03:09:27;101242.50;;;2.44;84.42
21781;BME280;52576;53.614;9.894;2023-04-26T03:11:30;101245.06;;;2.44;84.71
21781;BME280;52576;53.614;9.894;2023-04-26T03:13:34;101239.00;;;2.45;84.73
21781;BME280;52576;53.614;9.894;2023-04-26T03:15:38;101237.25;;;2.47;84.90
21781;BME280;52576;53.614;9.894;2023-04-26T03:17:41;101237.25;;;2.47;84.83
21781;BME280;52576;53.614;9.894;2023-04-26T03:19:47;101238.94;;;2.48;84.89
21781;BME280;52576;53.614;9.894;2023-04-26T03:21:51;101238.94;;;2.48;84.91
21781;BME280;52576;53.614;9.894;2023-04-26T03:23:54;101243.22;;;2.49;85.05
21781;BME280;52576;53.614;9.894;2023-04-26T03:25:58;101239.75;;;2.50;84.92
21781;BME280;52576;53.614;9.894;2023-04-26T03:28:01;101240.63;;;2.49;85.01
21781;BME280;52576;53.614;9.894;2023-04-26T03:30:06;101244.03;;;2.51;85.08
21781;BME280;52576;53.614;9.894;2023-04-26T03:32:11;101236.28;;;2.51;84.95
21781;BME280;52576;53.614;9.894;2023-04-26T03:34:15;101235.44;;;2.50;85.04
21781;BME280;52576;53.614;9.894;2023-04-26T03:36:20;101233.69;;;2.51;84.92
21781;BME280;52576;53.614;9.894;2023-04-26T03:38:24;101237.09;;;2.53;84.83
21781;BME280;52576;53.614;9.894;2023-04-26T03:40:27;101238.78;;;2.54;85.05
21781;BME280;52576;53.614;9.894;2023-04-26T03:42:31;101235.31;;;2.55;84.91
21781;BME280;52576;53.614;9.894;2023-04-26T03:44:35;101229.25;;;2.56;84.92
21781;BME280;52576;53.614;9.894;2023-04-26T03:46:38;101236.16;;;2.55;85.11
21781;BME280;52576;53.614;9.894;2023-04-26T03:48:42;101234.50;;;2.53;84.85
21781;BME280;52576;53.614;9.894;2023-04-26T03:50:45;101238.88;;;2.51;84.93
21781;BME280;52576;53.614;9.894;2023-04-26T03:52:50;101232.00;;;2.50;84.87
21781;BME280;52576;53.614;9.894;2023-04-26T03:54:54;101236.34;;;2.48;84.88
21781;BME280;52576;53.614;9.894;2023-04-26T03:56:57;101238.94;;;2.48;84.91
21781;BME280;52576;53.614;9.894;2023-04-26T03:59:01;101240.72;;;2.46;84.97
21781;BME280;52576;53.614;9.894;2023-04-26T04:01:04;101241.63;;;2.43;84.90
21781;BME280;52576;53.614;9.894;2023-04-26T04:03:08;101239.09;;;2.42;84.80
21781;BME280;52576;53.614;9.894;2023-04-26T04:05:12;101244.25;;;2.42;84.82
21781;BME280;52576;53.614;9.894;2023-04-26T04:07:16;101238.25;;;2.41;84.78
21781;BME280;52576;53.614;9.894;2023-04-26T04:09:21;101250.25;;;2.44;85.04
21781;BME280;52576;53.614;9.894;2023-04-26T04:11:25;101245.06;;;2.44;84.94
21781;BME280;52576;53.614;9.894;2023-04-26T04:13:28;101239.00;;;2.45;84.92
21781;BME280;52576;53.614;9.894;2023-04-26T04:15:31;101247.63;;;2.45;84.83
21781;BME280;52576;53.614;9.894;2023-04-26T04:17:35;101233.84;;;2.45;84.99
21781;BME280;52576;53.614;9.894;2023-04-26T04:19:40;101244.13;;;2.48;85.14
21781;BME280;52576;53.614;9.894;2023-04-26T04:21:43;101250.13;;;2.48;85.11
21781;BME280;52576;53.614;9.894;2023-04-26T04:23:48;101240.72;;;2.46;85.13
21781;BME280;52576;53.614;9.894;2023-04-26T04:25:54;101248.50;;;2.44;85.13
21781;BME280;52576;53.614;9.894;2023-04-26T04:27:59;101252.84;;;2.44;84.62
21781;BME280;52576;53.614;9.894;2023-04-26T04:30:05;101251.09;;;2.44;85.00
21781;BME280;52576;53.614;9.894;2023-04-26T04:32:10;101263.09;;;2.47;85.06
21781;BME280;52576;53.614;9.894;2023-04-26T04:34:15;101260.50;;;2.48;85.15
21781;BME280;52576;53.614;9.894;2023-04-26T04:36:22;101261.34;;;2.49;84.98
21781;BME280;52576;53.614;9.894;2023-04-26T04:38:25;101265.63;;;2.50;84.93
21781;BME280;52576;53.614;9.894;2023-04-26T04:40:30;101268.22;;;2.50;85.17
21781;BME280;52576;53.614;9.894;2023-04-26T04:42:35;101275.06;;;2.52;85.17
21781;BME280;52576;53.614;9.894;2023-04-26T04:44:41;101271.53;;;2.55;85.13
21781;BME280;52576;53.614;9.894;2023-04-26T04:46:46;101274.00;;;2.59;85.19
21781;BME280;52576;53.614;9.894;2023-04-26T04:48:50;101283.31;;;2.65;85.27
21781;BME280;52576;53.614;9.894;2023-04-26T04:50:55;101274.59;;;2.69;85.36
21781;BME280;52576;53.614;9.894;2023-04-26T04:52:59;101271.91;;;2.73;85.23
21781;BME280;52576;53.614;9.894;2023-04-26T04:55:03;101267.50;;;2.77;85.07
21781;BME280;52576;53.614;9.894;2023-04-26T04:57:07;101277.78;;;2.80;85.22
21781;BME280;52576;53.614;9.894;2023-04-26T04:59:14;101274.22;;;2.84;85.09
21781;BME280;52576;53.614;9.894;2023-04-26T05:01:18;101265.56;;;2.85;85.01
21781;BME280;52576;53.614;9.894;2023-04-26T05:03:24;101268.00;;;2.90;85.17
21781;BME280;52576;53.614;9.894;2023-04-26T05:05:30;101261.03;;;2.92;84.77
21781;BME280;52576;53.614;9.894;2023-04-26T05:07:35;101266.97;;;2.95;84.90
21781;BME280;52576;53.614;9.894;2023-04-26T05:09:42;101263.44;;;2.99;84.91
21781;BME280;52576;53.614;9.894;2023-04-26T05:11:46;101267.63;;;3.03;85.09
21781;BME280;52576;53.614;9.894;2023-04-26T05:13:52;101259.78;;;3.06;84.73
21781;BME280;52576;53.614;9.894;2023-04-26T05:15:59;101259.75;;;3.08;84.58
21781;BME280;52576;53.614;9.894;2023-04-26T05:18:04;101254.59;;;3.06;84.64
21781;BME280;52576;53.614;9.894;2023-04-26T05:20:08;101266.66;;;3.08;84.48
21781;BME280;52576;53.614;9.894;2023-04-26T05:22:12;101264.97;;;3.06;84.71
21781;BME280;52576;53.614;9.894;2023-04-26T05:24:21;101269.28;;;3.06;84.49
21781;BME280;52576;53.614;9.894;2023-04-26T05:26:26;101274.47;;;3.06;84.24
21781;BME280;52576;53.614;9.894;2023-04-26T05:28:32;101281.34;;;3.07;84.31
21781;BME280;52576;53.614;9.894;2023-04-26T05:31:13;101276.13;;;3.09;84.30
21781;BME280;52576;53.614;9.894;2023-04-26T05:33:27;101277.66;;;3.14;84.18
21781;BME280;52576;53.614;9.894;2023-04-26T05:35:45;101279.13;;;3.24;84.34
21781;BME280;52576;53.614;9.894;2023-04-26T05:37:49;101289.06;;;3.38;84.23
21781;BME280;52576;53.614;9.894;2023-04-26T05:39:52;101295.63;;;3.51;84.09
21781;BME280;52576;53.614;9.894;2023-04-26T05:42:00;101307.31;;;3.64;83.99
21781;BME280;52576;53.614;9.894;2023-04-26T05:44:05;101301.06;;;3.71;83.88
21781;BME280;52576;53.614;9.894;2023-04-26T05:46:09;101295.78;;;3.74;83.97
21781;BME280;52576;53.614;9.894;2023-04-26T05:48:16;101280.22;;;3.74;83.49
21781;BME280;52576;53.614;9.894;2023-04-26T05:50:21;101285.41;;;3.74;83.47
21781;BME280;52576;53.614;9.894;2023-04-26T05:52:24;101289.75;;;3.74;83.38
21781;BME280;52576;53.614;9.894;2023-04-26T05:54:28;101285.41;;;3.74;83.08
21781;BME280;52576;53.614;9.894;2023-04-26T05:56:32;101291.47;;;3.73;83.26
21781;BME280;52576;53.614;9.894;2023-04-26T05:58:36;101298.38;;;3.74;83.05
21781;BME280;52576;53.614;9.894;2023-04-26T06:00:39;101297.53;;;3.74;83.04
21781;BME280;52576;53.614;9.894;2023-04-26T06:02:43;101292.28;;;3.75;82.92
21781;BME280;52576;53.614;9.894;2023-04-26T06:04:52;101297.56;;;3.72;82.78
21781;BME280;52576;53.614;9.894;2023-04-26T06:06:57;101299.25;;;3.73;82.67
21781;BME280;52576;53.614;9.894;2023-04-26T06:09:01;101294.00;;;3.77;82.90
21781;BME280;52576;53.614;9.894;2023-04-26T06:11:05;101300.69;;;3.84;82.56
21781;BME280;52576;53.614;9.894;2023-04-26T06:13:09;101284.94;;;3.90;82.48
21781;BME280;52576;53.614;9.894;2023-04-26T06:15:12;101282.25;;;3.93;82.53
21781;BME280;52576;53.614;9.894;2023-04-26T06:17:16;101287.28;;;3.97;82.56
21781;BME280;52576;53.614;9.894;2023-04-26T06:19:20;101282.84;;;4.01;82.49
21781;BME280;52576;53.614;9.894;2023-04-26T06:21:25;101284.47;;;4.05;82.06
21781;BME280;52576;53.614;9.894;2023-04-26T06:23:28;101282.63;;;4.08;81.93
21781;BME280;52576;53.614;9.894;2023-04-26T06:25:32;101285.06;;;4.13;81.83
21781;BME280;52576;53.614;9.894;2023-04-26T06:27:36;101277.97;;;4.18;81.70
21781;BME280;52576;53.614;9.894;2023-04-26T06:29:41;101294.25;;;4.23;81.55
21781;BME280;52576;53.614;9.894;2023-04-26T06:31:44;101286.31;;;4.28;81.42
21781;BME280;52576;53.614;9.894;2023-04-26T06:33:48;101280.94;;;4.34;81.37
21781;BME280;52576;53.614;9.894;2023-04-26T06:35:55;101284.09;;;4.42;81.06
21781;BME280;52576;53.614;9.894;2023-04-26T06:38:01;101276.97;;;4.49;80.93
21781;BME280;52576;53.614;9.894;2023-04-26T06:40:07;101284.56;;;4.55;80.39
21781;BME280;52576;53.614;9.894;2023-04-26T06:42:12;101280.97;;;4.59;80.15
21781;BME280;52576;53.614;9.894;2023-04-26T06:44:57;101281.66;;;4.64;79.71
21781;BME280;52576;53.614;9.894;2023-04-26T06:47:08;101287.50;;;4.69;79.59
21781;BME280;52576;53.614;9.894;2023-04-26T06:49:12;101288.22;;;4.74;79.10
21781;BME280;52576;53.614;9.894;2023-04-26T06:51:16;101282.81;;;4.80;79.24
21781;BME280;52576;53.614;9.894;2023-04-26T06:53:21;101290.41;;;4.86;78.79
21781;BME280;52576;53.614;9.894;2023-04-26T06:55:25;101288.44;;;4.93;78.13
21781;BME280;52576;53.614;9.894;2023-04-26T06:57:29;101294.28;;;4.98;77.82
21781;BME280;52576;53.614;9.894;2023-04-26T06:59:33;101294.09;;;5.04;77.75
21781;BME280;52576;53.614;9.894;2023-04-26T07:01:37;101293.88;;;5.10;77.49
21781;BME280;52576;53.614;9.894;2023-04-26T07:03:42;101288.47;;;5.16;77.11
21781;BME280;52576;53.614;9.894;2023-04-26T07:05:46;101297.72;;;5.23;76.86
21781;BME280;52576;53.614;9.894;2023-04-26T07:07:49;101288.00;;;5.28;76.77
21781;BME280;52576;53.614;9.894;2023-04-26T07:09:54;101299.03;;;5.35;76.52
21781;BME280;52576;53.614;9.894;2023-04-26T07:11:57;101290.09;;;5.42;76.00
21781;BME280;52576;53.614;9.894;2023-04-26T07:14:01;101295.78;;;5.52;75.54
21781;BME280;52576;53.614;9.894;2023-04-26T07:16:04;101285.06;;;5.61;75.18
21781;BME280;52576;53.614;9.894;2023-04-26T07:18:07;101289.06;;;5.69;74.76
21781;BME280;52576;53.614;9.894;2023-04-26T07:20:11;101295.72;;;5.76;74.13
21781;BME280;52576;53.614;9.894;2023-04-26T07:22:16;101286.75;;;5.84;73.99
21781;BME280;52576;53.614;9.894;2023-04-26T07:24:20;101290.06;;;5.89;73.76
21781;BME280;52576;53.614;9.894;2023-04-26T07:26:25;101306.31;;;5.95;73.16
21781;BME280;52576;53.614;9.894;2023-04-26T07:28:28;101297.50;;;5.98;72.32
21781;BME280;52576;53.614;9.894;2023-04-26T07:30:32;101304.41;;;5.99;72.31
21781;BME280;52576;53.614;9.894;2023-04-26T07:32:35;101302.34;;;6.07;72.66
21781;BME280;52576;53.614;9.894;2023-04-26T07:34:39;101305.44;;;6.17;71.98
21781;BME280;52576;53.614;9.894;2023-04-26T07:36:42;101298.94;;;6.27;71.48
21781;BME280;52576;53.614;9.894;2023-04-26T07:38:46;101308.03;;;6.38;71.18
21781;BME280;52576;53.614;9.894;2023-04-26T07:40:50;101311.81;;;6.52;70.20
21781;BME280;52576;53.614;9.894;2023-04-26T07:42:54;101314.69;;;6.66;69.65
21781;BME280;52576;53.614;9.894;2023-04-26T07:44:58;101312.56;;;6.75;69.20
21781;BME280;52576;53.614;9.894;2023-04-26T07:47:01;101321.97;;;6.78;68.38
21781;BME280;52576;53.614;9.894;2023-04-26T07:49:05;101356.97;;;6.72;68.03
21781;BME280;52576;53.614;9.894;2023-04-26T07:51:10;101365.56;;;6.53;68.35
21781;BME280;52576;53.614;9.894;2023-04-26T07:53:13;101381.84;;;6.16;68.89
21781;BME280;52576;53.614;9.894;2023-04-26T07:55:17;101354.72;;;5.74;69.29
21781;BME280;52576;53.614;9.894;2023-04-26T07:57:20;101354.50;;;5.34;70.71
21781;BME280;52576;53.614;9.894;2023-04-26T07:59:25;101346.91;;;5.04;72.09
21781;BME280;52576;53.614;9.894;2023-04-26T08:01:28;101345.75;;;4.88;73.23
21781;BME280;52576;53.614;9.894;2023-04-26T08:03:32;101342.53;;;4.80;73.98
21781;BME280;52576;53.614;9.894;2023-04-26T08:05:36;101346.03;;;4.79;74.89
21781;BME280;52576;53.614;9.894;2023-04-26T08:07:39;101349.44;;;4.81;75.14
21781;BME280;52576;53.614;9.894;2023-04-26T08:09:43;101355.31;;;4.86;75.93
21781;BME280;52576;53.614;9.894;2023-04-26T08:11:46;101347.25;;;4.94;76.09
21781;BME280;52576;53.614;9.894;2023-04-26T08:13:50;101349.75;;;4.97;76.21
21781;BME280;52576;53.614;9.894;2023-04-26T08:15:55;101355.69;;;5.00;76.13
21781;BME280;52576;53.614;9.894;2023-04-26T08:17:58;101350.41;;;5.03;76.51
21781;BME280;52576;53.614;9.894;2023-04-26T08:20:02;101358.88;;;5.08;76.49
21781;BME280;52576;53.614;9.894;2023-04-26T08:22:07;101358.69;;;5.15;76.97
21781;BME280;52576;53.614;9.894;2023-04-26T08:24:10;101360.28;;;5.19;77.12
21781;BME280;52576;53.614;9.894;2023-04-26T08:26:14;101357.47;;;5.23;77.19
21781;BME280;52576;53.614;9.894;2023-04-26T08:28:17;101356.53;;;5.26;76.76
21781;BME280;52576;53.614;9.894;2023-04-26T08:30:20;101349.53;;;5.28;76.96
21781;BME280;52576;53.614;9.894;2023-04-26T08:32:26;101348.47;;;5.33;77.35
21781;BME280;52576;53.614;9.894;2023-04-26T08:34:29;101353.41;;;5.41;77.12
21781;BME280;52576;53.614;9.894;2023-04-26T08:36:35;101352.25;;;5.48;76.87
21781;BME280;52576;53.614;9.894;2023-04-26T08:38:38;101352.88;;;5.55;76.82
21781;BME280;52576;53.614;9.894;2023-04-26T08:40:42;101362.00;;;5.66;76.82
21781;BME280;52576;53.614;9.894;2023-04-26T08:42:49;101345.91;;;5.78;76.92
21781;BME280;52576;53.614;9.894;2023-04-26T08:44:54;101345.38;;;5.94;76.75
21781;BME280;52576;53.614;9.894;2023-04-26T08:47:03;101344.78;;;6.09;76.14
21781;BME280;52576;53.614;9.894;2023-04-26T08:49:16;101345.75;;;6.28;75.80
21781;BME280;52576;53.614;9.894;2023-04-26T08:51:25;101350.81;;;6.53;75.38
21781;BME280;52576;53.614;9.894;2023-04-26T08:53:30;101331.63;;;6.76;74.55
21781;BME280;52576;53.614;9.894;2023-04-26T08:55:36;101333.97;;;7.02;73.77
21781;BME280;52576;53.614;9.894;2023-04-26T08:57:41;101326.13;;;7.23;72.58
21781;BME280;52576;53.614;9.894;2023-04-26T08:59:45;101328.13;;;7.36;71.76
21781;BME280;52576;53.614;9.894;2023-04-26T09:01:49;101338.28;;;7.42;70.26
21781;BME280;52576;53.614;9.894;2023-04-26T09:03:53;101339.25;;;7.40;69.56
21781;BME280;52576;53.614;9.894;2023-04-26T09:06:00;101338.63;;;7.35;68.74
21781;BME280;52576;53.614;9.894;2023-04-26T09:08:13;101344.09;;;7.29;69.04
21781;BME280;52576;53.614;9.894;2023-04-26T09:10:19;101344.25;;;7.26;68.95
21781;BME280;52576;53.614;9.894;2023-04-26T09:12:23;101341.34;;;7.32;69.27
21781;BME280;52576;53.614;9.894;2023-04-26T09:14:27;101346.03;;;7.44;68.95
21781;BME280;52576;53.614;9.894;2023-04-26T09:16:34;101338.56;;;7.55;68.99
21781;BME280;52576;53.614;9.894;2023-04-26T09:18:46;101335.34;;;7.69;68.56
21781;BME280;52576;53.614;9.894;2023-04-26T09:21:04;101339.13;;;7.80;65.92
21781;BME280;52576;53.614;9.894;2023-04-26T09:23:09;101351.28;;;7.81;63.18
21781;BME280;52576;53.614;9.894;2023-04-26T09:25:15;101353.28;;;7.76;61.88
21781;BME280;52576;53.614;9.894;2023-04-26T09:27:19;101352.13;;;7.63;61.00
21781;BME280;52576;53.614;9.894;2023-04-26T09:29:23;101347.31;;;7.54;60.99
21781;BME280;52576;53.614;9.894;2023-04-26T09:31:37;101351.91;;;7.49;59.71
21781;BME280;52576;53.614;9.894;2023-04-26T09:33:56;101347.75;;;7.45;59.59
21781;BME280;52576;53.614;9.894;2023-04-26T09:36:11;101345.91;;;7.47;59.89
21781;BME280;52576;53.614;9.894;2023-04-26T09:38:16;101357.00;;;7.52;60.23
21781;BME280;52576;53.614;9.894;2023-04-26T09:40:20;101349.66;;;7.60;59.65
21781;BME280;52576;53.614;9.894;2023-04-26T09:42:24;101349.31;;;7.68;59.33
21781;BME280;52576;53.614;9.894;2023-04-26T09:44:28;101341.00;;;7.78;59.43
21781;BME280;52576;53.614;9.894;2023-04-26T09:46:33;101349.03;;;7.93;59.52
21781;BME280;52576;53.614;9.894;2023-04-26T09:48:39;101350.84;;;8.09;58.57
21781;BME280;52576;53.614;9.894;2023-04-26T09:50:44;101335.31;;;8.25;58.59
21781;BME280;52576;53.614;9.894;2023-04-26T09:52:49;101337.97;;;8.42;58.08
21781;BME280;52576;53.614;9.894;2023-04-26T09:54:54;101345.22;;;8.55;57.78
21781;BME280;52576;53.614;9.894;2023-04-26T09:56:59;101357.81;;;8.64;57.33
21781;BME280;52576;53.614;9.894;2023-04-26T09:59:02;101349.75;;;8.68;57.00
21781;BME280;52576;53.614;9.894;2023-04-26T10:01:09;101355.59;;;8.73;57.15
21781;BME280;52576;53.614;9.894;2023-04-26T10:03:14;101355.50;;;8.75;56.94
21781;BME280;52576;53.614;9.894;2023-04-26T10:05:18;101365.97;;;8.75;56.40
21781;BME280;52576;53.614;9.894;2023-04-26T10:07:23;101364.44;;;8.71;55.49
21781;BME280;52576;53.614;9.894;2023-04-26T10:09:28;101376.72;;;8.69;55.60
21781;BME280;52576;53.614;9.894;2023-04-26T10:11:37;101366.41;;;8.66;55.10
21781;BME280;52576;53.614;9.894;2023-04-26T10:13:41;101373.69;;;8.59;55.64
21781;BME280;52576;53.614;9.894;2023-04-26T10:15:47;101374.81;;;8.55;55.86
21781;BME280;52576;53.614;9.894;2023-04-26T10:17:51;101378.56;;;8.49;54.88
21781;BME280;52576;53.614;9.894;2023-04-26T10:19:57;101369.16;;;8.45;54.47
21781;BME280;52576;53.614;9.894;2023-04-26T10:22:05;101371.16;;;8.40;54.32
21781;BME280;52576;53.614;9.894;2023-04-26T10:24:13;101376.38;;;8.40;54.68
21781;BME280;52576;53.614;9.894;2023-04-26T10:26:49;101369.94;;;8.47;55.13
21781;BME280;52576;53.614;9.894;2023-04-26T10:28:57;101357.94;;;8.61;54.41
21781;BME280;52576;53.614;9.894;2023-04-26T10:31:07;101356.44;;;8.74;54.55
21781;BME280;52576;53.614;9.894;2023-04-26T10:33:11;101356.44;;;8.91;55.22
21781;BME280;52576;53.614;9.894;2023-04-26T10:35:16;101354.41;;;9.13;55.26
21781;BME280;52576;53.614;9.894;2023-04-26T10:37:21;101353.47;;;9.32;54.18
21781;BME280;52576;53.614;9.894;2023-04-26T10:39:25;101356.78;;;9.35;53.81
21781;BME280;52576;53.614;9.894;2023-04-26T10:41:34;101370.25;;;9.28;53.87
21781;BME280;52576;53.614;9.894;2023-04-26T10:43:41;101371.78;;;9.14;54.53
21781;BME280;52576;53.614;9.894;2023-04-26T10:45:46;101396.25;;;8.96;55.23
21781;BME280;52576;53.614;9.894;2023-04-26T10:48:18;101388.56;;;8.76;55.70
21781;BME280;52576;53.614;9.894;2023-04-26T10:50:22;101388.47;;;8.60;55.91
21781;BME280;52576;53.614;9.894;2023-04-26T10:52:25;101389.06;;;8.48;56.12
21781;BME280;52576;53.614;9.894;2023-04-26T10:54:47;101394.59;;;8.42;55.84
21781;BME280;52576;53.614;9.894;2023-04-26T10:56:51;101389.28;;;8.43;55.20
21781;BME280;52576;53.614;9.894;2023-04-26T10:59:08;101371.78;;;8.45;54.25
21781;BME280;52576;53.614;9.894;2023-04-26T11:01:17;101385.75;;;8.44;54.00
21781;BME280;52576;53.614;9.894;2023-04-26T11:03:22;101381.75;;;8.37;54.11